sensor_id;sensor_type;location;lat;lon;timestamp;P1;durP1;ratioP1;P2;durP2;ratioP2
5077;SDS011;2557;51.390;7.494;2024-01-15T00:00:14;27.45;;;14.68;;
5077;SDS011;2557;51.390;7.494;2024-01-15T00:02:41;28.55;;;16.23;;
5077;SDS011;2557;51.390;7.494;2024-01-15T00:05:07;26.65;;;13.55;;
5077;SDS011;2557;51.390;7.494;2024-01-15T00:07:33;25.40;;;15.60;;
5077;SDS011;2557;51.390;7.494;2024-01-15T00:09:59;29.87;;;16.87;;
5077;SDS011;2557;51.390;7.494;2024-01-15T00:12:25;29.48;;;16.75;;
5077;SDS011;2557;51.390;7.494;2024-01-15T00:14:51;27.02;;;15.27;;
5077;SDS011;2557;51.390;7.494;2024-01-15T00:17:17;32.53;;;18.30;;
5077;SDS011;2557;51.390;7.494;2024-01-15T00:19:43;31.83;;;16.47;;
5077;SDS011;2557;51.390;7.494;2024-01-15T00:22:09;30.80;;;18.23;;
5077;SDS011;2557;51.390;7.494;2024-01-15T00:24:35;38.15;;;18.92;;
5077;SDS011;2557;51.390;7.494;2024-01-15T00:27:01;32.57;;;18.57;;
5077;SDS011;2557;51.390;7.494;2024-01-15T00:29:27;31.90;;;16.92;;
5077;SDS011;2557;51.390;7.494;2024-01-15T00:31:53;30.70;;;17.92;;
5077;SDS011;2557;51.390;7.494;2024-01-15T00:34:19;31.58;;;18.23;;
5077;SDS011;2557;51.390;7.494;2024-01-15T00:36:45;37.40;;;18.95;;
5077;SDS011;2557;51.390;7.494;2024-01-15T00:39:11;33.57;;;17.10;;
5077;SDS011;2557;51.390;7.494;2024-01-15T00:41:37;31.67;;;18.15;;
5077;SDS011;2557;51.390;7.494;2024-01-15T00:44:03;34.58;;;18.63;;
5077;SDS011;2557;51.390;7.494;2024-01-15T00:46:29;38.47;;;19.88;;
5077;SDS011;2557;51.390;7.494;2024-01-15T00:48:55;36.97;;;17.75;;
5077;SDS011;2557;51.390;7.494;2024-01-15T00:51:21;35.00;;;19.60;;
5077;SDS011;2557;51.390;7.494;2024-01-15T00:53:48;37.22;;;20.10;;
5077;SDS011;2557;51.390;7.494;2024-01-15T00:56:14;31.13;;;17.15;;
5077;SDS011;2557;51.390;7.494;2024-01-15T00:58:40;35.37;;;19.40;;
5077;SDS011;2557;51.390;7.494;2024-01-15T01:01:06;34.33;;;18.70;;
5077;SDS011;2557;51.390;7.494;2024-01-15T01:03:32;33.83;;;19.70;;
5077;SDS011;2557;51.390;7.494;2024-01-15T01:05:58;30.77;;;16.63;;
5077;SDS011;2557;51.390;7.494;2024-01-15T01:08:24;32.93;;;18.30;;
5077;SDS011;2557;51.390;7.494;2024-01-15T01:10:50;31.27;;;18.05;;
5077;SDS011;2557;51.390;7.494;2024-01-15T01:13:16;32.60;;;18.03;;
5077;SDS011;2557;51.390;7.494;2024-01-15T01:15:42;32.63;;;18.33;;
5077;SDS011;2557;51.390;7.494;2024-01-15T01:18:08;35.60;;;18.77;;
5077;SDS011;2557;51.390;7.494;2024-01-15T01:20:33;38.47;;;17.97;;
5077;SDS011;2557;51.390;7.494;2024-01-15T01:22:59;33.20;;;19.20;;
5077;SDS011;2557;51.390;7.494;2024-01-15T01:25:25;29.20;;;16.17;;
5077;SDS011;2557;51.390;7.494;2024-01-15T01:27:51;35.37;;;18.70;;
5077;SDS011;2557;51.390;7.494;2024-01-15T01:30:17;29.83;;;15.60;;
5077;SDS011;2557;51.390;7.494;2024-01-15T01:32:43;37.55;;;19.33;;
5077;SDS011;2557;51.390;7.494;2024-01-15T01:35:09;31.15;;;18.17;;
5077;SDS011;2557;51.390;7.494;2024-01-15T01:37:35;27.80;;;16.63;;
5077;SDS011;2557;51.390;7.494;2024-01-15T01:40:01;31.67;;;17.70;;
5077;SDS011;2557;51.390;7.494;2024-01-15T01:42:28;35.60;;;19.00;;
5077;SDS011;2557;51.390;7.494;2024-01-15T01:44:54;31.47;;;16.77;;
5077;SDS011;2557;51.390;7.494;2024-01-15T01:47:20;35.15;;;19.42;;
5077;SDS011;2557;51.390;7.494;2024-01-15T01:49:46;38.93;;;18.47;;
5077;SDS011;2557;51.390;7.494;2024-01-15T01:52:12;35.13;;;17.38;;
5077;SDS011;2557;51.390;7.494;2024-01-15T01:54:39;33.05;;;17.55;;
5077;SDS011;2557;51.390;7.494;2024-01-15T01:57:05;29.98;;;17.20;;
5077;SDS011;2557;51.390;7.494;2024-01-15T01:59:32;33.67;;;17.52;;
5077;SDS011;2557;51.390;7.494;2024-01-15T02:01:59;37.58;;;19.33;;
5077;SDS011;2557;51.390;7.494;2024-01-15T02:04:27;36.28;;;19.77;;
5077;SDS011;2557;51.390;7.494;2024-01-15T02:06:53;31.27;;;17.48;;
5077;SDS011;2557;51.390;7.494;2024-01-15T02:09:19;41.60;;;19.00;;
5077;SDS011;2557;51.390;7.494;2024-01-15T02:11:48;35.13;;;18.73;;
5077;SDS011;2557;51.390;7.494;2024-01-15T02:14:15;27.40;;;16.67;;
5077;SDS011;2557;51.390;7.494;2024-01-15T02:16:41;32.45;;;17.67;;
5077;SDS011;2557;51.390;7.494;2024-01-15T02:19:07;32.08;;;16.67;;
5077;SDS011;2557;51.390;7.494;2024-01-15T02:21:33;33.95;;;18.67;;
5077;SDS011;2557;51.390;7.494;2024-01-15T02:23:59;34.00;;;17.80;;
5077;SDS011;2557;51.390;7.494;2024-01-15T02:26:25;32.22;;;15.90;;
5077;SDS011;2557;51.390;7.494;2024-01-15T02:28:51;30.60;;;17.15;;
5077;SDS011;2557;51.390;7.494;2024-01-15T02:31:17;46.85;;;17.83;;
5077;SDS011;2557;51.390;7.494;2024-01-15T02:33:43;30.60;;;17.67;;
5077;SDS011;2557;51.390;7.494;2024-01-15T02:36:11;33.83;;;17.90;;
5077;SDS011;2557;51.390;7.494;2024-01-15T02:38:37;32.05;;;16.30;;
5077;SDS011;2557;51.390;7.494;2024-01-15T02:41:03;32.03;;;15.95;;
5077;SDS011;2557;51.390;7.494;2024-01-15T02:43:29;38.13;;;17.35;;
5077;SDS011;2557;51.390;7.494;2024-01-15T02:45:55;31.77;;;15.63;;
5077;SDS011;2557;51.390;7.494;2024-01-15T02:48:21;28.90;;;16.43;;
5077;SDS011;2557;51.390;7.494;2024-01-15T02:50:47;31.60;;;17.13;;
5077;SDS011;2557;51.390;7.494;2024-01-15T02:53:13;34.40;;;17.00;;
5077;SDS011;2557;51.390;7.494;2024-01-15T02:55:39;29.70;;;16.75;;
5077;SDS011;2557;51.390;7.494;2024-01-15T02:58:05;25.87;;;14.90;;
5077;SDS011;2557;51.390;7.494;2024-01-15T03:00:31;27.25;;;14.80;;
5077;SDS011;2557;51.390;7.494;2024-01-15T03:02:57;37.73;;;17.57;;
5077;SDS011;2557;51.390;7.494;2024-01-15T03:05:23;32.38;;;18.13;;
5077;SDS011;2557;51.390;7.494;2024-01-15T03:07:49;31.53;;;16.40;;
5077;SDS011;2557;51.390;7.494;2024-01-15T03:10:15;40.10;;;17.42;;
5077;SDS011;2557;51.390;7.494;2024-01-15T03:12:41;30.42;;;16.15;;
5077;SDS011;2557;51.390;7.494;2024-01-15T03:15:07;28.87;;;15.57;;
5077;SDS011;2557;51.390;7.494;2024-01-15T03:17:33;42.47;;;17.55;;
5077;SDS011;2557;51.390;7.494;2024-01-15T03:19:59;33.70;;;17.43;;
5077;SDS011;2557;51.390;7.494;2024-01-15T03:22:25;33.42;;;16.45;;
5077;SDS011;2557;51.390;7.494;2024-01-15T03:24:52;30.57;;;16.13;;
5077;SDS011;2557;51.390;7.494;2024-01-15T03:27:18;35.50;;;17.10;;
5077;SDS011;2557;51.390;7.494;2024-01-15T03:29:44;27.53;;;16.40;;
5077;SDS011;2557;51.390;7.494;2024-01-15T03:32:10;29.00;;;15.50;;
5077;SDS011;2557;51.390;7.494;2024-01-15T03:34:36;26.20;;;15.73;;
5077;SDS011;2557;51.390;7.494;2024-01-15T03:37:02;33.43;;;15.77;;
5077;SDS011;2557;51.390;7.494;2024-01-15T03:39:28;29.77;;;18.00;;
5077;SDS011;2557;51.390;7.494;2024-01-15T03:41:55;29.83;;;15.55;;
5077;SDS011;2557;51.390;7.494;2024-01-15T03:44:21;34.10;;;15.38;;
5077;SDS011;2557;51.390;7.494;2024-01-15T03:46:47;25.63;;;14.20;;
5077;SDS011;2557;51.390;7.494;2024-01-15T03:49:12;29.83;;;14.47;;
5077;SDS011;2557;51.390;7.494;2024-01-15T03:51:38;27.33;;;13.50;;
5077;SDS011;2557;51.390;7.494;2024-01-15T03:54:04;25.10;;;15.40;;
5077;SDS011;2557;51.390;7.494;2024-01-15T03:56:31;27.10;;;12.93;;
5077;SDS011;2557;51.390;7.494;2024-01-15T03:58:56;25.57;;;14.27;;
5077;SDS011;2557;51.390;7.494;2024-01-15T04:01:22;28.58;;;14.10;;
5077;SDS011;2557;51.390;7.494;2024-01-15T04:03:48;29.40;;;12.73;;
5077;SDS011;2557;51.390;7.494;2024-01-15T04:06:14;21.35;;;12.77;;
5077;SDS011;2557;51.390;7.494;2024-01-15T04:08:40;27.47;;;14.57;;
5077;SDS011;2557;51.390;7.494;2024-01-15T04:11:06;23.73;;;13.70;;
5077;SDS011;2557;51.390;7.494;2024-01-15T04:13:32;27.43;;;13.20;;
5077;SDS011;2557;51.390;7.494;2024-01-15T04:15:59;20.63;;;13.00;;
5077;SDS011;2557;51.390;7.494;2024-01-15T04:18:25;25.60;;;12.75;;
5077;SDS011;2557;51.390;7.494;2024-01-15T04:20:51;24.03;;;12.03;;
5077;SDS011;2557;51.390;7.494;2024-01-15T04:23:17;17.33;;;12.03;;
5077;SDS011;2557;51.390;7.494;2024-01-15T04:25:43;25.00;;;11.40;;
5077;SDS011;2557;51.390;7.494;2024-01-15T04:28:10;25.20;;;12.30;;
5077;SDS011;2557;51.390;7.494;2024-01-15T04:30:36;23.13;;;12.50;;
5077;SDS011;2557;51.390;7.494;2024-01-15T04:33:02;23.07;;;13.50;;
5077;SDS011;2557;51.390;7.494;2024-01-15T04:35:29;26.23;;;12.40;;
5077;SDS011;2557;51.390;7.494;2024-01-15T04:37:55;17.17;;;10.85;;
5077;SDS011;2557;51.390;7.494;2024-01-15T04:40:21;20.67;;;11.55;;
5077;SDS011;2557;51.390;7.494;2024-01-15T04:42:47;18.80;;;12.00;;
5077;SDS011;2557;51.390;7.494;2024-01-15T04:45:13;24.92;;;12.65;;
5077;SDS011;2557;51.390;7.494;2024-01-15T04:47:39;18.13;;;10.27;;
5077;SDS011;2557;51.390;7.494;2024-01-15T04:50:07;19.65;;;10.15;;
5077;SDS011;2557;51.390;7.494;2024-01-15T04:52:33;24.00;;;13.13;;
5077;SDS011;2557;51.390;7.494;2024-01-15T04:54:59;16.63;;;11.50;;
5077;SDS011;2557;51.390;7.494;2024-01-15T04:57:25;25.63;;;11.30;;
5077;SDS011;2557;51.390;7.494;2024-01-15T04:59:51;20.77;;;12.60;;
5077;SDS011;2557;51.390;7.494;2024-01-15T05:02:17;18.40;;;10.63;;
5077;SDS011;2557;51.390;7.494;2024-01-15T05:04:43;24.92;;;12.80;;
5077;SDS011;2557;51.390;7.494;2024-01-15T05:07:09;25.37;;;11.50;;
5077;SDS011;2557;51.390;7.494;2024-01-15T05:09:35;21.70;;;10.90;;
5077;SDS011;2557;51.390;7.494;2024-01-15T05:12:01;17.83;;;12.33;;
5077;SDS011;2557;51.390;7.494;2024-01-15T05:14:27;19.33;;;12.00;;
5077;SDS011;2557;51.390;7.494;2024-01-15T05:16:53;22.13;;;11.13;;
5077;SDS011;2557;51.390;7.494;2024-01-15T05:19:19;19.77;;;11.15;;
5077;SDS011;2557;51.390;7.494;2024-01-15T05:21:45;20.90;;;12.40;;
5077;SDS011;2557;51.390;7.494;2024-01-15T05:24:11;17.77;;;10.63;;
5077;SDS011;2557;51.390;7.494;2024-01-15T05:26:37;17.50;;;9.87;;
5077;SDS011;2557;51.390;7.494;2024-01-15T05:29:03;25.80;;;13.07;;
5077;SDS011;2557;51.390;7.494;2024-01-15T05:31:29;26.97;;;10.63;;
5077;SDS011;2557;51.390;7.494;2024-01-15T05:33:54;16.70;;;10.97;;
5077;SDS011;2557;51.390;7.494;2024-01-15T05:36:20;23.00;;;12.37;;
5077;SDS011;2557;51.390;7.494;2024-01-15T05:38:47;20.48;;;10.85;;
5077;SDS011;2557;51.390;7.494;2024-01-15T05:41:13;28.02;;;12.65;;
5077;SDS011;2557;51.390;7.494;2024-01-15T05:43:39;21.43;;;10.87;;
5077;SDS011;2557;51.390;7.494;2024-01-15T05:46:05;26.07;;;11.37;;
5077;SDS011;2557;51.390;7.494;2024-01-15T05:48:31;14.43;;;10.27;;
5077;SDS011;2557;51.390;7.494;2024-01-15T05:50:57;17.53;;;10.37;;
5077;SDS011;2557;51.390;7.494;2024-01-15T05:53:23;18.70;;;12.35;;
5077;SDS011;2557;51.390;7.494;2024-01-15T05:55:49;17.90;;;10.63;;
5077;SDS011;2557;51.390;7.494;2024-01-15T05:58:15;25.77;;;11.07;;
5077;SDS011;2557;51.390;7.494;2024-01-15T06:00:41;18.50;;;10.50;;
5077;SDS011;2557;51.390;7.494;2024-01-15T06:03:07;20.23;;;11.00;;
5077;SDS011;2557;51.390;7.494;2024-01-15T06:05:33;16.77;;;10.40;;
5077;SDS011;2557;51.390;7.494;2024-01-15T06:07:59;17.00;;;10.00;;
5077;SDS011;2557;51.390;7.494;2024-01-15T06:10:25;18.30;;;11.30;;
5077;SDS011;2557;51.390;7.494;2024-01-15T06:12:51;19.88;;;11.48;;
5077;SDS011;2557;51.390;7.494;2024-01-15T06:15:17;19.93;;;9.80;;
5077;SDS011;2557;51.390;7.494;2024-01-15T06:17:43;14.77;;;10.37;;
5077;SDS011;2557;51.390;7.494;2024-01-15T06:20:09;20.40;;;11.23;;
5077;SDS011;2557;51.390;7.494;2024-01-15T06:22:35;18.23;;;10.85;;
5077;SDS011;2557;51.390;7.494;2024-01-15T06:25:04;20.85;;;10.15;;
5077;SDS011;2557;51.390;7.494;2024-01-15T06:27:30;17.73;;;10.77;;
5077;SDS011;2557;51.390;7.494;2024-01-15T06:29:56;16.23;;;10.00;;
5077;SDS011;2557;51.390;7.494;2024-01-15T06:32:22;16.63;;;10.57;;
5077;SDS011;2557;51.390;7.494;2024-01-15T06:34:48;15.88;;;10.80;;
5077;SDS011;2557;51.390;7.494;2024-01-15T06:37:14;18.10;;;11.60;;
5077;SDS011;2557;51.390;7.494;2024-01-15T06:39:40;13.18;;;10.27;;
5077;SDS011;2557;51.390;7.494;2024-01-15T06:42:06;16.13;;;9.83;;
5077;SDS011;2557;51.390;7.494;2024-01-15T06:44:32;14.00;;;9.25;;
5077;SDS011;2557;51.390;7.494;2024-01-15T06:46:58;17.70;;;10.02;;
5077;SDS011;2557;51.390;7.494;2024-01-15T06:49:27;15.73;;;10.70;;
5077;SDS011;2557;51.390;7.494;2024-01-15T06:51:54;18.48;;;11.30;;
5077;SDS011;2557;51.390;7.494;2024-01-15T06:54:20;18.53;;;10.10;;
5077;SDS011;2557;51.390;7.494;2024-01-15T06:56:46;21.10;;;12.00;;
5077;SDS011;2557;51.390;7.494;2024-01-15T06:59:12;13.95;;;9.27;;
5077;SDS011;2557;51.390;7.494;2024-01-15T07:01:38;15.83;;;9.70;;
5077;SDS011;2557;51.390;7.494;2024-01-15T07:04:04;16.53;;;10.93;;
5077;SDS011;2557;51.390;7.494;2024-01-15T07:06:30;13.02;;;8.70;;
5077;SDS011;2557;51.390;7.494;2024-01-15T07:08:56;18.30;;;9.00;;
5077;SDS011;2557;51.390;7.494;2024-01-15T07:11:22;14.57;;;10.13;;
5077;SDS011;2557;51.390;7.494;2024-01-15T07:13:48;12.52;;;9.63;;
5077;SDS011;2557;51.390;7.494;2024-01-15T07:16:14;17.02;;;9.23;;
5077;SDS011;2557;51.390;7.494;2024-01-15T07:18:40;20.25;;;9.80;;
5077;SDS011;2557;51.390;7.494;2024-01-15T07:21:06;15.50;;;10.32;;
5077;SDS011;2557;51.390;7.494;2024-01-15T07:23:32;16.75;;;10.10;;
5077;SDS011;2557;51.390;7.494;2024-01-15T07:25:59;17.70;;;11.00;;
5077;SDS011;2557;51.390;7.494;2024-01-15T07:28:24;14.77;;;9.57;;
5077;SDS011;2557;51.390;7.494;2024-01-15T07:30:51;16.65;;;10.55;;
5077;SDS011;2557;51.390;7.494;2024-01-15T07:33:17;23.80;;;9.90;;
5077;SDS011;2557;51.390;7.494;2024-01-15T07:35:43;17.70;;;10.40;;
5077;SDS011;2557;51.390;7.494;2024-01-15T07:38:09;14.02;;;9.77;;
5077;SDS011;2557;51.390;7.494;2024-01-15T07:40:36;18.15;;;11.95;;
5077;SDS011;2557;51.390;7.494;2024-01-15T07:43:02;20.02;;;11.35;;
5077;SDS011;2557;51.390;7.494;2024-01-15T07:45:28;19.52;;;11.13;;
5077;SDS011;2557;51.390;7.494;2024-01-15T07:47:54;14.70;;;11.70;;
5077;SDS011;2557;51.390;7.494;2024-01-15T07:50:20;23.27;;;11.80;;
5077;SDS011;2557;51.390;7.494;2024-01-15T07:52:46;15.45;;;11.00;;
5077;SDS011;2557;51.390;7.494;2024-01-15T07:55:13;19.80;;;12.45;;
5077;SDS011;2557;51.390;7.494;2024-01-15T07:57:39;18.23;;;12.02;;
5077;SDS011;2557;51.390;7.494;2024-01-15T08:00:05;19.70;;;12.68;;
5077;SDS011;2557;51.390;7.494;2024-01-15T08:02:32;18.90;;;11.68;;
5077;SDS011;2557;51.390;7.494;2024-01-15T08:04:58;17.20;;;11.82;;
5077;SDS011;2557;51.390;7.494;2024-01-15T08:07:24;16.23;;;10.80;;
5077;SDS011;2557;51.390;7.494;2024-01-15T08:09:50;15.73;;;10.43;;
5077;SDS011;2557;51.390;7.494;2024-01-15T08:12:16;16.65;;;11.25;;
5077;SDS011;2557;51.390;7.494;2024-01-15T08:14:42;15.33;;;10.00;;
5077;SDS011;2557;51.390;7.494;2024-01-15T08:17:08;18.33;;;9.80;;
5077;SDS011;2557;51.390;7.494;2024-01-15T08:19:34;14.67;;;10.33;;
5077;SDS011;2557;51.390;7.494;2024-01-15T08:22:00;17.30;;;11.33;;
5077;SDS011;2557;51.390;7.494;2024-01-15T08:24:26;17.20;;;11.30;;
5077;SDS011;2557;51.390;7.494;2024-01-15T08:26:53;12.20;;;10.18;;
5077;SDS011;2557;51.390;7.494;2024-01-15T08:29:21;9.50;;;8.35;;
5077;SDS011;2557;51.390;7.494;2024-01-15T08:31:47;12.70;;;8.47;;
5077;SDS011;2557;51.390;7.494;2024-01-15T08:34:13;12.65;;;8.63;;
5077;SDS011;2557;51.390;7.494;2024-01-15T08:36:39;8.57;;;7.30;;
5077;SDS011;2557;51.390;7.494;2024-01-15T08:39:05;6.93;;;5.93;;
5077;SDS011;2557;51.390;7.494;2024-01-15T08:41:34;8.10;;;5.50;;
5077;SDS011;2557;51.390;7.494;2024-01-15T08:44:01;6.70;;;5.35;;
5077;SDS011;2557;51.390;7.494;2024-01-15T08:46:27;6.32;;;5.72;;
5077;SDS011;2557;51.390;7.494;2024-01-15T08:48:53;9.00;;;5.63;;
5077;SDS011;2557;51.390;7.494;2024-01-15T08:51:19;8.30;;;5.72;;
5077;SDS011;2557;51.390;7.494;2024-01-15T08:53:46;9.85;;;5.53;;
5077;SDS011;2557;51.390;7.494;2024-01-15T08:56:12;8.88;;;6.45;;
5077;SDS011;2557;51.390;7.494;2024-01-15T08:58:38;8.33;;;5.70;;
5077;SDS011;2557;51.390;7.494;2024-01-15T09:01:04;8.52;;;5.63;;
5077;SDS011;2557;51.390;7.494;2024-01-15T09:03:30;6.13;;;5.50;;
5077;SDS011;2557;51.390;7.494;2024-01-15T09:05:57;6.38;;;5.40;;
5077;SDS011;2557;51.390;7.494;2024-01-15T09:08:23;10.40;;;6.60;;
5077;SDS011;2557;51.390;7.494;2024-01-15T09:10:49;11.38;;;7.53;;
5077;SDS011;2557;51.390;7.494;2024-01-15T09:13:15;12.63;;;6.97;;
5077;SDS011;2557;51.390;7.494;2024-01-15T09:15:41;7.65;;;6.35;;
5077;SDS011;2557;51.390;7.494;2024-01-15T09:18:08;8.27;;;6.38;;
5077;SDS011;2557;51.390;7.494;2024-01-15T09:20:34;8.73;;;6.87;;
5077;SDS011;2557;51.390;7.494;2024-01-15T09:23:00;9.60;;;6.63;;
5077;SDS011;2557;51.390;7.494;2024-01-15T09:25:27;10.38;;;8.18;;
5077;SDS011;2557;51.390;7.494;2024-01-15T09:27:54;7.53;;;6.45;;
5077;SDS011;2557;51.390;7.494;2024-01-15T09:30:20;7.70;;;6.22;;
5077;SDS011;2557;51.390;7.494;2024-01-15T09:32:46;9.73;;;6.25;;
5077;SDS011;2557;51.390;7.494;2024-01-15T09:35:12;11.40;;;7.93;;
5077;SDS011;2557;51.390;7.494;2024-01-15T09:37:39;9.48;;;7.00;;
5077;SDS011;2557;51.390;7.494;2024-01-15T09:40:05;7.47;;;6.70;;
5077;SDS011;2557;51.390;7.494;2024-01-15T09:42:31;9.15;;;7.10;;
5077;SDS011;2557;51.390;7.494;2024-01-15T09:44:58;7.20;;;6.50;;
5077;SDS011;2557;51.390;7.494;2024-01-15T09:47:24;8.63;;;7.70;;
5077;SDS011;2557;51.390;7.494;2024-01-15T09:49:50;9.00;;;8.10;;
5077;SDS011;2557;51.390;7.494;2024-01-15T09:52:16;8.63;;;7.18;;
5077;SDS011;2557;51.390;7.494;2024-01-15T09:54:45;9.68;;;7.30;;
5077;SDS011;2557;51.390;7.494;2024-01-15T09:57:12;10.95;;;7.22;;
5077;SDS011;2557;51.390;7.494;2024-01-15T09:59:38;9.45;;;8.38;;
5077;SDS011;2557;51.390;7.494;2024-01-15T10:02:06;11.55;;;8.55;;
5077;SDS011;2557;51.390;7.494;2024-01-15T10:04:32;9.35;;;7.55;;
5077;SDS011;2557;51.390;7.494;2024-01-15T10:06:58;11.73;;;8.02;;
5077;SDS011;2557;51.390;7.494;2024-01-15T10:09:26;9.82;;;6.93;;
5077;SDS011;2557;51.390;7.494;2024-01-15T10:11:52;9.65;;;7.63;;
5077;SDS011;2557;51.390;7.494;2024-01-15T10:14:19;11.63;;;6.55;;
5077;SDS011;2557;51.390;7.494;2024-01-15T10:16:45;9.18;;;6.57;;
5077;SDS011;2557;51.390;7.494;2024-01-15T10:19:11;7.90;;;6.63;;
5077;SDS011;2557;51.390;7.494;2024-01-15T10:21:37;6.55;;;5.85;;
5077;SDS011;2557;51.390;7.494;2024-01-15T10:24:04;6.90;;;5.25;;
5077;SDS011;2557;51.390;7.494;2024-01-15T10:26:30;6.95;;;5.38;;
5077;SDS011;2557;51.390;7.494;2024-01-15T10:28:58;7.85;;;5.50;;
5077;SDS011;2557;51.390;7.494;2024-01-15T10:31:25;6.00;;;5.47;;
5077;SDS011;2557;51.390;7.494;2024-01-15T10:33:51;5.88;;;5.28;;
5077;SDS011;2557;51.390;7.494;2024-01-15T10:36:17;6.70;;;5.72;;
5077;SDS011;2557;51.390;7.494;2024-01-15T10:38:43;5.35;;;4.85;;
5077;SDS011;2557;51.390;7.494;2024-01-15T10:41:10;7.45;;;4.95;;
5077;SDS011;2557;51.390;7.494;2024-01-15T10:43:36;5.68;;;4.97;;
5077;SDS011;2557;51.390;7.494;2024-01-15T10:46:02;6.70;;;5.13;;
5077;SDS011;2557;51.390;7.494;2024-01-15T10:48:28;5.55;;;5.13;;
5077;SDS011;2557;51.390;7.494;2024-01-15T10:50:56;8.98;;;5.72;;
5077;SDS011;2557;51.390;7.494;2024-01-15T10:53:23;6.18;;;5.35;;
5077;SDS011;2557;51.390;7.494;2024-01-15T10:55:53;6.07;;;5.38;;
5077;SDS011;2557;51.390;7.494;2024-01-15T10:58:20;5.22;;;4.70;;
5077;SDS011;2557;51.390;7.494;2024-01-15T11:00:48;5.22;;;4.75;;
5077;SDS011;2557;51.390;7.494;2024-01-15T11:03:14;6.82;;;6.22;;
5077;SDS011;2557;51.390;7.494;2024-01-15T11:05:41;5.40;;;4.90;;
5077;SDS011;2557;51.390;7.494;2024-01-15T11:08:08;5.05;;;4.65;;
5077;SDS011;2557;51.390;7.494;2024-01-15T11:10:37;7.20;;;5.75;;
5077;SDS011;2557;51.390;7.494;2024-01-15T11:13:05;6.13;;;5.53;;
5077;SDS011;2557;51.390;7.494;2024-01-15T11:15:30;9.23;;;4.70;;
5077;SDS011;2557;51.390;7.494;2024-01-15T11:18:00;5.03;;;4.53;;
5077;SDS011;2557;51.390;7.494;2024-01-15T11:20:30;4.93;;;4.45;;
5077;SDS011;2557;51.390;7.494;2024-01-15T11:22:57;6.80;;;5.18;;
5077;SDS011;2557;51.390;7.494;2024-01-15T11:25:24;7.30;;;5.43;;
5077;SDS011;2557;51.390;7.494;2024-01-15T11:27:59;6.03;;;5.43;;
5077;SDS011;2557;51.390;7.494;2024-01-15T11:30:25;6.63;;;6.03;;
5077;SDS011;2557;51.390;7.494;2024-01-15T11:32:51;12.15;;;6.35;;
5077;SDS011;2557;51.390;7.494;2024-01-15T11:35:17;5.65;;;5.15;;
5077;SDS011;2557;51.390;7.494;2024-01-15T11:43:03;9.20;;;5.68;;
5077;SDS011;2557;51.390;7.494;2024-01-15T11:45:30;7.80;;;5.78;;
5077;SDS011;2557;51.390;7.494;2024-01-15T11:48:14;6.70;;;6.00;;
5077;SDS011;2557;51.390;7.494;2024-01-15T11:50:44;7.75;;;6.55;;
5077;SDS011;2557;51.390;7.494;2024-01-15T11:53:18;6.97;;;6.22;;
5077;SDS011;2557;51.390;7.494;2024-01-15T11:55:46;6.80;;;6.13;;
5077;SDS011;2557;51.390;7.494;2024-01-15T11:58:14;6.38;;;5.65;;
5077;SDS011;2557;51.390;7.494;2024-01-15T12:00:42;6.32;;;5.72;;
5077;SDS011;2557;51.390;7.494;2024-01-15T12:03:08;7.85;;;5.80;;
5077;SDS011;2557;51.390;7.494;2024-01-15T12:05:36;8.50;;;5.80;;
5077;SDS011;2557;51.390;7.494;2024-01-15T12:08:02;7.63;;;4.80;;
5077;SDS011;2557;51.390;7.494;2024-01-15T12:10:28;6.30;;;5.80;;
5077;SDS011;2557;51.390;7.494;2024-01-15T12:15:27;5.45;;;4.95;;
5077;SDS011;2557;51.390;7.494;2024-01-15T12:17:57;6.28;;;5.78;;
5077;SDS011;2557;51.390;7.494;2024-01-15T12:20:24;6.57;;;5.25;;
5077;SDS011;2557;51.390;7.494;2024-01-15T12:22:50;6.85;;;5.78;;
5077;SDS011;2557;51.390;7.494;2024-01-15T12:25:16;20.33;;;6.85;;
5077;SDS011;2557;51.390;7.494;2024-01-15T12:27:42;11.27;;;6.45;;
5077;SDS011;2557;51.390;7.494;2024-01-15T12:30:12;7.80;;;6.20;;
5077;SDS011;2557;51.390;7.494;2024-01-15T12:32:39;6.85;;;5.93;;
5077;SDS011;2557;51.390;7.494;2024-01-15T12:35:06;9.10;;;7.18;;
5077;SDS011;2557;51.390;7.494;2024-01-15T12:37:34;13.98;;;10.25;;
5077;SDS011;2557;51.390;7.494;2024-01-15T12:40:01;12.70;;;8.10;;
5077;SDS011;2557;51.390;7.494;2024-01-15T12:42:27;10.02;;;7.32;;
5077;SDS011;2557;51.390;7.494;2024-01-15T12:44:55;8.77;;;6.07;;
5077;SDS011;2557;51.390;7.494;2024-01-15T12:47:21;17.85;;;7.75;;
5077;SDS011;2557;51.390;7.494;2024-01-15T12:49:47;13.90;;;7.15;;
5077;SDS011;2557;51.390;7.494;2024-01-15T12:52:18;11.45;;;7.85;;
5077;SDS011;2557;51.390;7.494;2024-01-15T12:54:46;8.40;;;7.22;;
5077;SDS011;2557;51.390;7.494;2024-01-15T12:57:12;9.30;;;7.53;;
5077;SDS011;2557;51.390;7.494;2024-01-15T12:59:38;8.55;;;7.35;;
5077;SDS011;2557;51.390;7.494;2024-01-15T13:02:04;10.87;;;7.50;;
5077;SDS011;2557;51.390;7.494;2024-01-15T13:04:31;7.20;;;6.43;;
5077;SDS011;2557;51.390;7.494;2024-01-15T13:06:57;7.33;;;6.63;;
5077;SDS011;2557;51.390;7.494;2024-01-15T13:09:23;8.18;;;7.25;;
5077;SDS011;2557;51.390;7.494;2024-01-15T13:11:49;7.80;;;6.32;;
5077;SDS011;2557;51.390;7.494;2024-01-15T13:14:17;9.77;;;7.05;;
5077;SDS011;2557;51.390;7.494;2024-01-15T13:16:43;9.83;;;5.40;;
5077;SDS011;2557;51.390;7.494;2024-01-15T13:19:10;8.68;;;6.32;;
5077;SDS011;2557;51.390;7.494;2024-01-15T13:21:37;12.02;;;5.68;;
5077;SDS011;2557;51.390;7.494;2024-01-15T13:24:04;6.65;;;5.95;;
5077;SDS011;2557;51.390;7.494;2024-01-15T13:26:31;7.25;;;6.50;;
5077;SDS011;2557;51.390;7.494;2024-01-15T13:28:57;6.20;;;5.60;;
5077;SDS011;2557;51.390;7.494;2024-01-15T13:31:23;7.30;;;6.60;;
5077;SDS011;2557;51.390;7.494;2024-01-15T13:33:49;8.50;;;6.83;;
5077;SDS011;2557;51.390;7.494;2024-01-15T13:36:15;7.50;;;6.43;;
5077;SDS011;2557;51.390;7.494;2024-01-15T13:38:41;7.75;;;6.55;;
5077;SDS011;2557;51.390;7.494;2024-01-15T13:41:07;8.02;;;7.05;;
5077;SDS011;2557;51.390;7.494;2024-01-15T13:43:33;9.75;;;8.00;;
5077;SDS011;2557;51.390;7.494;2024-01-15T13:46:00;14.82;;;7.45;;
5077;SDS011;2557;51.390;7.494;2024-01-15T13:48:29;14.07;;;8.32;;
5077;SDS011;2557;51.390;7.494;2024-01-15T13:50:56;12.20;;;8.93;;
5077;SDS011;2557;51.390;7.494;2024-01-15T13:53:22;9.82;;;7.35;;
5077;SDS011;2557;51.390;7.494;2024-01-15T13:55:48;11.47;;;8.00;;
5077;SDS011;2557;51.390;7.494;2024-01-15T13:58:14;14.00;;;7.43;;
5077;SDS011;2557;51.390;7.494;2024-01-15T14:00:41;12.65;;;7.22;;
5077;SDS011;2557;51.390;7.494;2024-01-15T14:03:07;10.90;;;9.47;;
5077;SDS011;2557;51.390;7.494;2024-01-15T14:05:33;8.52;;;7.60;;
5077;SDS011;2557;51.390;7.494;2024-01-15T14:07:59;11.43;;;9.43;;
5077;SDS011;2557;51.390;7.494;2024-01-15T14:10:25;10.05;;;7.43;;
5077;SDS011;2557;51.390;7.494;2024-01-15T14:12:51;8.23;;;6.20;;
5077;SDS011;2557;51.390;7.494;2024-01-15T14:15:17;12.10;;;6.37;;
5077;SDS011;2557;51.390;7.494;2024-01-15T14:17:46;7.15;;;6.20;;
5077;SDS011;2557;51.390;7.494;2024-01-15T14:20:12;7.97;;;6.40;;
5077;SDS011;2557;51.390;7.494;2024-01-15T14:22:38;10.00;;;5.77;;
5077;SDS011;2557;51.390;7.494;2024-01-15T14:25:04;7.18;;;6.20;;
5077;SDS011;2557;51.390;7.494;2024-01-15T14:27:30;7.13;;;6.43;;
5077;SDS011;2557;51.390;7.494;2024-01-15T14:29:57;9.85;;;5.63;;
5077;SDS011;2557;51.390;7.494;2024-01-15T14:32:23;12.38;;;5.40;;
5077;SDS011;2557;51.390;7.494;2024-01-15T14:34:49;12.17;;;5.30;;
5077;SDS011;2557;51.390;7.494;2024-01-15T14:37:15;9.85;;;5.03;;
5077;SDS011;2557;51.390;7.494;2024-01-15T14:39:41;6.80;;;5.00;;
5077;SDS011;2557;51.390;7.494;2024-01-15T14:42:08;6.75;;;5.45;;
5077;SDS011;2557;51.390;7.494;2024-01-15T14:44:34;7.53;;;5.40;;
5077;SDS011;2557;51.390;7.494;2024-01-15T14:47:00;7.93;;;5.40;;
5077;SDS011;2557;51.390;7.494;2024-01-15T14:49:26;8.82;;;6.95;;
5077;SDS011;2557;51.390;7.494;2024-01-15T14:51:52;12.88;;;6.40;;
5077;SDS011;2557;51.390;7.494;2024-01-15T14:54:19;10.15;;;7.45;;
5077;SDS011;2557;51.390;7.494;2024-01-15T14:56:46;8.88;;;7.40;;
5077;SDS011;2557;51.390;7.494;2024-01-15T14:59:12;11.18;;;6.75;;